Time;durP1;ratioP1;P1;durP2;ratioP2;P2;SDS_P1;SDS_P2;PMS_P1;PMS_P2;Temp;Humidity;BMP_temperature;BMP_pressure;BME280_temperature;BME280_humidity;BME280_pressure;Samples;Min_cycle;Max_cycle;Signal;HPM_P1;HPM_P2
2022/07/11 04:13:09;;;;;;;14.00;12.90;;;16.10;99.90;;;;;;5695273;23;20489;-71
2022/07/11 04:15:36;;;;;;;13.30;12.70;;;16.10;99.90;;;;;;4941318;28;20489;-69
2022/07/11 04:18:03;;;;;;;13.20;12.40;;;16.20;99.90;;;;;;4942779;29;20462;-71
2022/07/11 04:20:30;;;;;;;13.27;12.43;;;16.30;99.90;;;;;;4934208;29;20483;-69
2022/07/11 04:22:57;;;;;;;14.60;13.50;;;16.30;99.90;;;;;;4944571;29;20458;-69
2022/07/11 04:25:24;;;;;;;14.10;13.33;;;16.30;99.90;;;;;;4934355;29;20763;-70
2022/07/11 04:27:50;;;;;;;14.33;13.33;;;16.30;99.90;;;;;;4933911;29;20501;-70
2022/07/11 04:30:19;;;;;;;13.90;13.03;;;16.20;99.90;;;;;;4934023;29;20599;-70
2022/07/11 04:32:45;;;;;;;13.30;12.40;;;16.30;99.90;;;;;;4934262;29;20951;-69
2022/07/11 04:35:12;;;;;;;12.83;12.23;;;16.30;99.90;;;;;;4934548;29;20453;-69
2022/07/11 04:37:39;;;;;;;12.67;12.07;;;16.30;99.90;;;;;;4933828;29;20460;-69
2022/07/11 04:40:07;;;;;;;12.00;11.30;;;16.30;99.90;;;;;;4934579;29;20863;-71
2022/07/11 04:42:33;;;;;;;12.70;11.97;;;16.40;99.90;;;;;;4934077;29;20461;-71
2022/07/11 04:45:00;;;;;;;12.23;11.73;;;16.50;99.90;;;;;;4934048;29;20473;-71
2022/07/11 04:47:28;;;;;;;13.00;12.10;;;16.60;99.90;;;;;;4934207;29;20460;-71
2022/07/11 04:49:56;;;;;;;13.23;12.53;;;16.60;99.90;;;;;;4934459;29;20557;-70
2022/07/11 04:52:26;;;;;;;15.53;14.53;;;16.60;99.90;;;;;;4933982;29;20465;-70
2022/07/11 04:54:53;;;;;;;12.83;12.10;;;16.80;99.90;;;;;;4934292;29;20522;-72
2022/07/11 04:57:20;;;;;;;13.00;12.30;;;16.80;99.90;;;;;;4933945;29;20822;-70
2022/07/11 04:59:46;;;;;;;13.13;12.30;;;16.80;99.90;;;;;;4933878;29;20461;-69
2022/07/11 05:02:13;;;;;;;13.37;12.47;;;16.90;99.90;;;;;;4934178;29;20477;-71
2022/07/11 05:04:41;;;;;;;12.00;11.20;;;17.10;99.90;;;;;;4934352;29;20457;-71
2022/07/11 05:07:08;;;;;;;12.60;11.90;;;17.20;99.90;;;;;;4933972;29;20513;-70
2022/07/11 05:09:35;;;;;;;12.60;12.10;;;17.20;99.90;;;;;;4933677;29;20453;-71
2022/07/11 05:12:02;;;;;;;12.13;11.37;;;17.30;99.90;;;;;;4938235;29;20476;-71
2022/07/11 05:14:28;;;;;;;13.33;12.63;;;17.30;99.90;;;;;;4952747;29;20483;-71
2022/07/11 05:16:55;;;;;;;12.80;12.10;;;17.30;99.90;;;;;;4952863;29;20457;-71
2022/07/11 05:19:22;;;;;;;13.50;12.87;;;17.30;99.90;;;;;;4952881;29;20448;-71
2022/07/11 05:21:50;;;;;;;13.63;12.67;;;17.20;99.90;;;;;;4953197;28;20453;-71
2022/07/11 05:24:18;;;;;;;13.60;12.80;;;17.40;99.90;;;;;;4962877;28;20457;-71
2022/07/11 05:26:46;;;;;;;13.47;12.57;;;17.70;99.90;;;;;;4952884;29;20463;-72
2022/07/11 05:29:13;;;;;;;13.93;13.13;;;17.70;99.90;;;;;;4952677;29;20460;-72
2022/07/11 05:31:42;;;;;;;14.77;12.90;;;17.80;99.90;;;;;;4952828;29;20488;-72
2022/07/11 05:34:11;;;;;;;14.10;13.30;;;17.90;99.90;;;;;;4952706;29;20629;-70
2022/07/11 05:36:39;;;;;;;14.60;13.50;;;17.70;99.90;;;;;;4952816;29;20452;-71
2022/07/11 05:39:07;;;;;;;14.93;13.53;;;17.80;99.90;;;;;;4952580;29;20488;-70
2022/07/11 05:41:34;;;;;;;15.90;14.53;;;17.80;99.90;;;;;;4952466;29;20453;-72
2022/07/11 05:44:01;;;;;;;13.80;13.10;;;17.80;99.90;;;;;;4952488;29;20460;-70
2022/07/11 05:46:27;;;;;;;14.80;13.83;;;17.90;99.90;;;;;;4952614;29;20963;-69
2022/07/11 05:48:54;;;;;;;13.40;12.43;;;18.00;99.90;;;;;;4953401;28;20452;-71
2022/07/11 11:51:55;;;;;;;13.50;12.80;;;30.40;58.20;;;;;;5531586;23;20506;-71
2022/07/11 11:54:24;;;;;;;12.37;11.97;;;30.90;57.10;;;;;;4990431;28;20882;-71
2022/07/11 11:56:50;;;;;;;13.00;12.60;;;31.00;56.70;;;;;;4985155;28;20479;-71
2022/07/11 11:59:17;;;;;;;13.60;13.07;;;31.20;56.20;;;;;;4992812;28;20462;-71
2022/07/11 12:01:45;;;;;;;14.10;13.60;;;31.20;56.00;;;;;;4992791;28;20453;-72
2022/07/11 12:04:14;;;;;;;15.43;14.60;;;31.70;55.50;;;;;;4992435;28;20481;-72
2022/07/11 12:06:42;;;;;;;13.93;13.50;;;31.70;55.40;;;;;;4990552;28;20454;-73
2022/07/11 12:09:12;;;;;;;14.27;13.77;;;32.40;54.70;;;;;;4992565;28;20458;-71
2022/07/11 12:11:39;;;;;;;14.07;13.57;;;33.00;54.10;;;;;;4992277;28;20491;-72
2022/07/11 12:14:08;;;;;;;13.50;13.10;;;33.80;53.20;;;;;;4991906;28;20446;-71
2022/07/11 12:16:42;;;;;;;13.63;12.93;;;34.20;52.00;;;;;;4992344;28;20454;-72
2022/07/11 12:19:11;;;;;;;13.60;13.10;;;34.10;51.80;;;;;;4992189;28;20499;-72
2022/07/11 12:21:39;;;;;;;14.70;14.20;;;33.70;51.50;;;;;;4992029;28;20820;-72
2022/07/11 12:24:09;;;;;;;14.20;13.43;;;34.40;51.30;;;;;;4991928;28;20900;-72
2022/07/11 12:26:39;;;;;;;13.67;13.17;;;33.60;51.50;;;;;;4991961;28;20450;-72
2022/07/11 12:29:08;;;;;;;12.87;12.33;;;32.30;53.00;;;;;;4991982;28;20451;-72
2022/07/11 12:31:57;;;;;;;12.60;11.93;;;31.70;54.70;;;;;;4991823;28;20582;-71
2022/07/11 12:34:27;;;;;;;13.50;13.00;;;32.10;53.40;;;;;;4987236;28;20727;-72
2022/07/11 12:37:03;;;;;;;13.50;13.10;;;31.80;54.00;;;;;;4991229;28;20538;-72
2022/07/11 12:39:33;;;;;;;13.77;13.00;;;31.80;54.60;;;;;;4991870;28;20861;-72
2022/07/11 12:42:20;;;;;;;12.83;12.33;;;31.20;55.70;;;;;;4990773;28;20471;-72
2022/07/11 12:44:58;;;;;;;13.30;12.77;;;31.00;55.60;;;;;;5003494;28;20458;-71
2022/07/11 12:47:27;;;;;;;13.70;13.20;;;30.40;57.10;;;;;;4992950;28;20447;-72
2022/07/11 12:49:54;;;;;;;13.30;12.90;;;30.40;57.50;;;;;;4991563;28;20922;-72
2022/07/11 12:52:20;;;;;;;13.60;13.00;;;29.90;58.10;;;;;;5007355;28;20490;-72
2022/07/11 12:54:47;;;;;;;13.80;13.23;;;29.50;58.60;;;;;;5011457;28;20453;-72
2022/07/11 12:57:21;;;;;;;20.07;16.90;;;28.70;59.80;;;;;;5010645;28;20465;-72
2022/07/11 12:59:47;;;;;;;13.07;12.47;;;28.60;60.80;;;;;;4996089;28;20811;-71
2022/07/11 13:02:15;;;;;;;14.27;13.33;;;28.40;61.00;;;;;;4991393;28;20447;-72
2022/07/11 13:04:46;;;;;;;12.53;12.13;;;28.50;61.40;;;;;;4991381;28;20463;-72
2022/07/11 13:10:15;;;;;;;13.20;12.60;;;28.70;61.30;;;;;;4986506;28;20422;-71
2022/07/11 13:12:45;;;;;;;13.83;13.30;;;28.90;61.30;;;;;;4991128;28;20471;-72
2022/07/11 13:15:16;;;;;;;13.23;12.47;;;28.70;61.60;;;;;;4990789;28;20451;-72
2022/07/11 13:17:44;;;;;;;13.87;13.27;;;28.50;62.80;;;;;;5009955;28;20485;-71
2022/07/11 13:20:14;;;;;;;15.30;14.30;;;28.60;63.40;;;;;;5010399;28;20460;-71
2022/07/11 13:22:41;;;;;;;14.10;13.50;;;28.40;64.00;;;;;;5010316;28;20449;-71
2022/07/11 13:25:10;;;;;;;14.37;13.77;;;29.20;61.80;;;;;;5010304;28;21166;-72
2022/07/11 13:27:36;;;;;;;14.20;13.60;;;29.80;61.00;;;;;;5010084;28;20446;-73
2022/07/11 13:30:10;;;;;;;14.10;13.60;;;30.00;59.70;;;;;;5010354;28;20461;-72
2022/07/11 13:32:38;;;;;;;11.80;11.30;;;30.10;60.60;;;;;;5010091;28;20501;-72
2022/07/11 13:35:06;;;;;;;14.30;13.70;;;30.10;58.80;;;;;;5010371;28;20449;-72
2022/07/11 13:37:35;;;;;;;13.80;13.30;;;29.80;59.80;;;;;;5010240;28;20453;-72
2022/07/11 13:40:02;;;;;;;13.00;12.50;;;30.40;59.30;;;;;;5010418;28;20458;-72
2022/07/11 13:42:30;;;;;;;14.03;13.30;;;30.30;59.40;;;;;;5010366;28;20468;-72
2022/07/11 13:44:57;;;;;;;15.10;14.20;;;29.20;60.40;;;;;;5010267;28;20462;-72
2022/07/11 13:47:25;;;;;;;14.93;14.23;;;28.60;62.80;;;;;;5010315;28;20791;-73
2022/07/11 13:49:51;;;;;;;14.60;13.77;;;28.40;63.80;;;;;;5004384;28;20455;-72
2022/07/11 13:52:18;;;;;;;13.37;12.77;;;28.60;63.90;;;;;;4990436;28;20506;-71
2022/07/11 13:54:45;;;;;;;14.20;13.50;;;28.90;64.00;;;;;;4990521;28;20447;-72
2022/07/11 13:57:12;;;;;;;15.07;14.50;;;28.90;63.50;;;;;;4990103;28;20791;-72
2022/07/11 13:59:40;;;;;;;15.20;14.37;;;28.60;62.80;;;;;;4989967;28;20831;-71
2022/07/11 14:02:07;;;;;;;14.30;13.60;;;28.40;63.90;;;;;;4989931;28;20933;-72
2022/07/11 14:04:35;;;;;;;13.83;13.33;;;28.00;64.80;;;;;;4989925;28;20439;-72
2022/07/11 14:07:02;;;;;;;13.83;13.33;;;27.80;65.90;;;;;;4987662;28;20933;-70
2022/07/11 14:09:29;;;;;;;14.73;14.07;;;28.40;64.80;;;;;;4990350;28;20453;-72
2022/07/11 14:11:56;;;;;;;13.57;12.87;;;28.80;63.80;;;;;;4993653;28;20491;-73
2022/07/11 14:14:23;;;;;;;13.83;13.33;;;28.90;63.60;;;;;;4993627;28;20570;-72
2022/07/11 14:16:49;;;;;;;14.10;13.60;;;29.30;63.40;;;;;;4993735;28;20525;-71
2022/07/11 14:19:16;;;;;;;14.10;13.50;;;29.30;62.70;;;;;;4993672;28;20438;-72
2022/07/11 14:21:44;;;;;;;14.07;13.57;;;29.10;62.10;;;;;;4993802;28;20454;-72
2022/07/11 14:24:11;;;;;;;13.33;12.73;;;29.10;62.70;;;;;;4993566;28;20799;-72
2022/07/11 14:26:38;;;;;;;12.70;12.20;;;29.20;61.50;;;;;;4993551;28;20922;-71
2022/07/11 14:29:06;;;;;;;13.47;12.87;;;29.50;61.00;;;;;;4993353;28;20963;-72
2022/07/11 14:31:32;;;;;;;13.50;13.00;;;29.10;61.40;;;;;;4992973;28;21015;-72
2022/07/11 14:34:00;;;;;;;13.70;13.20;;;29.00;62.30;;;;;;4993314;28;20431;-72
2022/07/11 14:36:27;;;;;;;14.23;13.63;;;28.80;63.40;;;;;;4993247;28;20451;-72
2022/07/11 14:38:55;;;;;;;13.43;12.77;;;28.60;63.70;;;;;;4993425;28;20450;-73
2022/07/11 14:41:23;;;;;;;13.53;12.97;;;28.90;63.50;;;;;;4990985;28;20435;-73
2022/07/11 14:43:50;;;;;;;13.43;12.93;;;28.80;63.50;;;;;;4993163;28;20442;-72
2022/07/11 14:46:17;;;;;;;13.70;13.10;;;28.70;64.00;;;;;;4993341;28;20446;-72
2022/07/11 14:48:44;;;;;;;13.60;13.10;;;29.30;63.80;;;;;;4993147;28;20457;-73
2022/07/11 14:51:11;;;;;;;13.40;12.87;;;29.30;62.70;;;;;;4990534;28;20892;-72
2022/07/11 14:53:38;;;;;;;14.10;13.47;;;29.00;63.70;;;;;;4992688;28;20490;-73
2022/07/11 14:56:07;;;;;;;14.80;13.80;;;28.80;64.30;;;;;;4993059;28;20438;-73
2022/07/11 14:58:33;;;;;;;14.50;13.80;;;28.50;64.50;;;;;;4990541;28;20459;-73
2022/07/11 15:01:00;;;;;;;13.50;12.90;;;28.50;65.00;;;;;;4993680;28;20454;-75
2022/07/11 15:03:41;;;;;;;13.90;13.30;;;28.70;65.50;;;;;;4993231;28;20451;-72
2022/07/11 15:06:10;;;;;;;14.30;13.77;;;28.70;63.80;;;;;;4993211;28;20541;-73
2022/07/11 17:21:19;;;;;;;12.43;11.93;;;24.50;82.90;;;;;;5713665;23;20500;-71
2022/07/11 17:23:46;;;;;;;13.43;12.83;;;24.60;82.90;;;;;;4927557;29;20493;-71
2022/07/11 17:26:12;;;;;;;12.90;12.40;;;24.50;82.50;;;;;;4931671;29;21212;-70
2022/07/11 17:28:39;;;;;;;12.47;11.97;;;24.50;83.10;;;;;;4945848;29;20444;-71
2022/07/11 17:31:06;;;;;;;12.40;11.90;;;24.30;82.90;;;;;;4951018;29;20453;-71
2022/07/11 17:33:32;;;;;;;12.60;11.97;;;24.30;83.20;;;;;;4951284;29;20488;-72
2022/07/11 17:35:59;;;;;;;13.57;12.83;;;24.20;84.50;;;;;;4950906;29;20519;-71
2022/07/11 17:38:28;;;;;;;13.30;12.60;;;24.20;83.30;;;;;;4951222;29;20820;-71
2022/07/11 17:40:55;;;;;;;12.60;12.10;;;24.10;84.30;;;;;;4950991;29;20457;-71
2022/07/11 17:43:21;;;;;;;12.90;12.30;;;24.10;84.30;;;;;;4951189;28;20790;-71
2022/07/11 17:45:48;;;;;;;13.17;12.40;;;24.10;85.30;;;;;;4957789;29;20460;-71
2022/07/11 17:48:15;;;;;;;13.27;12.57;;;24.00;86.00;;;;;;4957317;28;20448;-71
2022/07/11 17:50:45;;;;;;;11.47;10.87;;;24.10;86.20;;;;;;4957481;29;20938;-71
2022/07/11 17:53:12;;;;;;;12.53;12.03;;;24.00;86.90;;;;;;4956787;28;20499;-71
2022/07/11 17:55:40;;;;;;;13.23;12.73;;;24.00;86.90;;;;;;4957009;28;20456;-71
2022/07/11 17:58:07;;;;;;;12.90;12.20;;;24.00;87.00;;;;;;4956544;28;20464;-71
2022/07/11 18:00:34;;;;;;;13.33;12.77;;;24.10;87.20;;;;;;4957152;28;20456;-71
2022/07/11 18:03:00;;;;;;;12.30;11.80;;;24.10;87.50;;;;;;4956393;28;20471;-71
2022/07/11 18:05:27;;;;;;;11.73;11.33;;;24.10;87.30;;;;;;4938942;28;20489;-71
2022/07/11 18:07:54;;;;;;;11.63;11.20;;;24.10;87.30;;;;;;4937748;29;20461;-71
2022/07/11 18:10:21;;;;;;;12.40;11.80;;;24.00;87.80;;;;;;4938054;29;20959;-71
2022/07/11 18:12:49;;;;;;;11.93;11.43;;;24.00;88.10;;;;;;4938302;29;20493;-71
2022/07/11 18:15:16;;;;;;;11.80;11.20;;;24.00;88.20;;;;;;4938260;29;20453;-71
2022/07/11 18:17:42;;;;;;;13.07;12.27;;;24.00;88.30;;;;;;4938158;29;20869;-71
2022/07/11 18:20:14;;;;;;;11.67;11.17;;;24.00;87.50;;;;;;4937986;29;20485;-71
2022/07/11 18:22:42;;;;;;;11.67;11.17;;;23.80;87.10;;;;;;4937974;29;20552;-71
2022/07/11 18:25:09;;;;;;;12.13;11.47;;;23.80;86.70;;;;;;4937853;29;20476;-71
2022/07/11 18:27:36;;;;;;;10.40;10.00;;;23.70;87.80;;;;;;4938039;29;20457;-71
2022/07/11 18:30:06;;;;;;;11.30;10.90;;;23.70;88.50;;;;;;4937938;29;20560;-71
2022/07/11 18:32:33;;;;;;;10.97;10.47;;;23.60;88.70;;;;;;4937998;29;20587;-71
2022/07/11 18:35:00;;;;;;;11.73;10.80;;;23.50;89.70;;;;;;4937725;29;20453;-71
2022/07/11 18:37:27;;;;;;;11.50;10.93;;;23.40;90.30;;;;;;4937849;29;20543;-71
2022/07/11 18:42:38;;;;;;;12.30;11.70;;;23.30;90.90;;;;;;4938134;29;20508;-71
2022/07/11 18:45:08;;;;;;;11.60;10.90;;;23.20;91.20;;;;;;4937689;29;20453;-71
2022/07/11 18:47:35;;;;;;;11.40;11.00;;;23.00;91.20;;;;;;4938040;29;20828;-71
2022/07/11 18:50:03;;;;;;;12.00;11.50;;;22.90;91.90;;;;;;4937724;29;20463;-70
2022/07/11 18:52:29;;;;;;;10.90;10.50;;;22.80;92.50;;;;;;4937648;29;20495;-70
2022/07/11 18:54:56;;;;;;;12.30;11.80;;;22.70;93.00;;;;;;4937080;29;20946;-70
2022/07/11 18:57:23;;;;;;;12.00;11.50;;;22.60;93.70;;;;;;4938199;29;20556;-71
2022/07/11 18:59:49;;;;;;;12.43;11.93;;;22.50;94.10;;;;;;4953705;29;20472;-70
2022/07/11 19:02:17;;;;;;;13.00;12.03;;;22.40;94.90;;;;;;4941856;29;20532;-70
2022/07/11 19:04:44;;;;;;;12.80;12.20;;;22.30;95.40;;;;;;4950969;28;20476;-70
2022/07/11 19:07:11;;;;;;;12.30;11.60;;;22.10;96.20;;;;;;4952975;29;20543;-71
2022/07/11 19:09:38;;;;;;;13.30;12.33;;;22.00;97.10;;;;;;4953224;29;20445;-70
2022/07/11 19:12:05;;;;;;;12.30;11.70;;;21.90;97.50;;;;;;4950783;28;20517;-71
2022/07/11 19:14:32;;;;;;;13.07;12.43;;;21.80;98.00;;;;;;4942590;28;20445;-71
2022/07/11 19:16:59;;;;;;;12.80;12.20;;;21.70;98.70;;;;;;4943124;28;20938;-71
2022/07/11 19:19:27;;;;;;;12.67;12.10;;;21.60;99.60;;;;;;4935813;29;20445;-71
2022/07/11 19:21:54;;;;;;;12.43;11.83;;;21.40;99.90;;;;;;4947907;29;20484;-71
2022/07/11 19:24:21;;;;;;;12.40;11.70;;;21.40;99.80;;;;;;4952904;28;20504;-71
2022/07/11 19:26:47;;;;;;;12.80;12.20;;;21.30;99.90;;;;;;4945374;29;20926;-71
2022/07/11 19:29:14;;;;;;;12.47;11.77;;;21.20;99.90;;;;;;4947794;29;20465;-71
2022/07/11 19:31:41;;;;;;;13.20;12.40;;;21.10;99.90;;;;;;4933882;29;20484;-71
2022/07/11 19:34:07;;;;;;;12.00;11.50;;;21.00;99.90;;;;;;4933946;29;20800;-71
2022/07/11 19:36:36;;;;;;;12.40;11.90;;;20.90;99.90;;;;;;4952122;29;20484;-71
2022/07/11 19:39:03;;;;;;;12.70;12.10;;;20.80;99.90;;;;;;4952350;29;20469;-71
2022/07/11 19:41:30;;;;;;;12.40;11.80;;;20.70;99.90;;;;;;4952869;28;20453;-71
2022/07/11 19:43:57;;;;;;;12.47;11.77;;;20.60;99.90;;;;;;4952306;29;20448;-71
2022/07/11 19:46:24;;;;;;;12.30;11.70;;;20.40;99.90;;;;;;4946365;28;20521;-71
2022/07/11 19:48:50;;;;;;;11.27;10.77;;;20.40;99.90;;;;;;4933263;29;20491;-71
2022/07/11 19:51:17;;;;;;;12.80;12.10;;;20.30;99.90;;;;;;4931503;29;20821;-70
2022/07/11 19:53:45;;;;;;;11.37;10.87;;;20.20;99.90;;;;;;4929586;29;20540;-70
2022/07/11 19:58:56;;;;;;;12.93;11.93;;;20.00;99.90;;;;;;4938278;29;20819;-70
2022/07/11 20:01:23;;;;;;;12.60;12.00;;;20.00;99.90;;;;;;4951893;29;20461;-70
2022/07/11 20:03:50;;;;;;;12.33;11.70;;;20.00;99.90;;;;;;4952079;29;20445;-70
2022/07/11 20:06:16;;;;;;;12.77;12.27;;;19.80;99.90;;;;;;4951357;29;20457;-70
2022/07/11 20:08:44;;;;;;;12.40;11.80;;;19.80;99.90;;;;;;4950182;28;20619;-70
2022/07/11 20:11:11;;;;;;;13.03;12.33;;;19.70;99.90;;;;;;4951873;28;20453;-70
2022/07/11 20:13:38;;;;;;;13.27;12.40;;;19.60;99.90;;;;;;4951712;28;20494;-71
2022/07/11 20:16:06;;;;;;;13.00;12.20;;;19.60;99.90;;;;;;4950282;28;20463;-70
2022/07/11 20:18:32;;;;;;;13.60;12.50;;;19.60;99.90;;;;;;4951668;29;20463;-70
2022/07/11 20:20:59;;;;;;;12.17;11.60;;;19.60;99.90;;;;;;4951440;29;20583;-70
2022/07/11 20:23:26;;;;;;;12.10;11.50;;;19.60;99.90;;;;;;4937107;29;20848;-70
2022/07/11 20:25:56;;;;;;;12.50;11.90;;;19.50;99.90;;;;;;4932896;29;20465;-70
2022/07/11 20:28:23;;;;;;;12.47;11.87;;;19.60;99.90;;;;;;4948451;29;20883;-70
2022/07/11 20:30:50;;;;;;;13.03;12.20;;;19.60;99.90;;;;;;4932701;29;20516;-70
2022/07/11 20:33:17;;;;;;;16.70;13.97;;;19.60;99.90;;;;;;4936462;29;20480;-70
2022/07/11 20:35:43;;;;;;;22.13;13.70;;;19.60;99.90;;;;;;4951227;29;20464;-70
2022/07/11 20:38:10;;;;;;;14.60;13.10;;;19.60;99.90;;;;;;4951206;29;20461;-70
2022/07/11 20:40:37;;;;;;;16.07;14.50;;;19.60;99.90;;;;;;4951184;29;20516;-72
2022/07/11 20:43:05;;;;;;;16.83;15.17;;;19.60;99.90;;;;;;4937295;29;20528;-71
2022/07/11 20:45:32;;;;;;;15.47;14.57;;;19.50;99.90;;;;;;4931996;29;20513;-69
2022/07/11 20:47:59;;;;;;;14.80;13.50;;;19.40;99.90;;;;;;4931542;29;20572;-70
2022/07/11 20:50:25;;;;;;;13.87;12.93;;;19.40;99.90;;;;;;4926931;29;21189;-71
2022/07/11 20:52:52;;;;;;;14.27;13.30;;;19.40;99.90;;;;;;4932533;29;20894;-71
2022/07/11 20:55:19;;;;;;;14.20;13.30;;;19.40;99.90;;;;;;4930528;29;20480;-72
2022/07/11 20:57:47;;;;;;;14.30;13.40;;;19.30;99.90;;;;;;4928086;29;20457;-71
2022/07/11 21:00:17;;;;;;;13.60;12.80;;;19.20;99.90;;;;;;4944535;29;20454;-71
2022/07/11 21:02:43;;;;;;;14.40;13.47;;;19.10;99.90;;;;;;4932643;29;20450;-71
2022/07/11 21:05:10;;;;;;;15.30;14.20;;;19.10;99.90;;;;;;4944685;29;20452;-70
2022/07/11 21:07:37;;;;;;;15.70;14.53;;;19.10;99.90;;;;;;4951502;29;20504;-70
2022/07/11 21:10:04;;;;;;;14.90;13.90;;;19.10;99.90;;;;;;4951850;29;20453;-71
2022/07/11 21:12:30;;;;;;;14.30;13.50;;;19.10;99.90;;;;;;4936858;29;20552;-71
2022/07/11 21:14:57;;;;;;;15.63;14.63;;;19.20;99.90;;;;;;4932295;29;20462;-71
2022/07/11 21:17:25;;;;;;;14.60;13.80;;;19.20;99.90;;;;;;4932047;29;20457;-71
2022/07/11 21:19:51;;;;;;;14.90;13.90;;;19.20;99.90;;;;;;4918598;29;20829;-71
2022/07/11 21:22:18;;;;;;;16.70;15.50;;;19.20;99.90;;;;;;4925880;29;20994;-71
2022/07/11 21:24:45;;;;;;;16.13;14.57;;;19.20;99.90;;;;;;4932174;29;21188;-72
2022/07/11 21:27:11;;;;;;;15.53;14.13;;;19.30;99.90;;;;;;4923731;29;21190;-73
2022/07/11 21:29:38;;;;;;;16.20;14.57;;;19.30;99.90;;;;;;4913639;29;20518;-72
2022/07/11 21:32:05;;;;;;;14.63;13.53;;;19.30;99.90;;;;;;4924019;29;20524;-72
2022/07/11 21:34:33;;;;;;;13.37;12.47;;;19.40;99.90;;;;;;4917093;29;20557;-72
2022/07/11 21:37:00;;;;;;;16.07;14.70;;;19.40;99.90;;;;;;4932437;29;20449;-72
2022/07/11 21:39:27;;;;;;;14.80;13.57;;;19.40;99.90;;;;;;4931845;29;20462;-71
2022/07/11 21:41:53;;;;;;;15.33;14.30;;;19.40;99.90;;;;;;4925510;29;20493;-71
2022/07/11 21:44:21;;;;;;;14.10;13.40;;;19.40;99.90;;;;;;4931133;29;20477;-71
2022/07/11 21:46:47;;;;;;;14.50;13.80;;;19.30;99.90;;;;;;4922176;29;20896;-71
2022/07/11 21:49:14;;;;;;;15.27;14.47;;;19.30;99.90;;;;;;4932256;29;20445;-71
2022/07/11 21:51:42;;;;;;;16.17;15.07;;;19.30;99.90;;;;;;4932151;29;20661;-71
2022/07/11 21:54:08;;;;;;;16.23;15.13;;;19.40;99.90;;;;;;4932322;29;20505;-71
2022/07/11 21:56:35;;;;;;;16.20;15.20;;;19.30;99.90;;;;;;4931644;29;20956;-71
2022/07/11 21:59:02;;;;;;;17.30;16.23;;;19.30;99.90;;;;;;4931919;29;20476;-71
2022/07/11 22:01:28;;;;;;;17.03;15.83;;;19.30;99.90;;;;;;4932465;29;20461;-71
2022/07/11 22:03:55;;;;;;;17.77;16.07;;;19.30;99.90;;;;;;4932163;29;20740;-71
2022/07/11 22:06:22;;;;;;;15.00;13.93;;;19.30;99.90;;;;;;4932244;29;20461;-71
2022/07/11 22:08:50;;;;;;;16.03;14.93;;;19.30;99.90;;;;;;4932277;29;20808;-71
2022/07/11 22:11:16;;;;;;;15.37;14.30;;;19.30;99.90;;;;;;4932055;29;20983;-71
2022/07/11 22:13:43;;;;;;;14.47;13.60;;;19.20;99.90;;;;;;4931583;29;20976;-71
2022/07/11 22:16:10;;;;;;;15.33;14.43;;;19.30;99.90;;;;;;4931434;29;20469;-71
2022/07/11 22:18:36;;;;;;;15.03;14.27;;;19.30;99.90;;;;;;4932267;29;20476;-71
2022/07/11 22:21:03;;;;;;;17.17;15.77;;;19.20;99.90;;;;;;4931772;29;20504;-72
2022/07/11 22:23:30;;;;;;;15.93;15.13;;;19.10;99.90;;;;;;4946809;29;20480;-72
2022/07/11 22:25:59;;;;;;;14.60;13.90;;;19.20;99.90;;;;;;4950700;29;20575;-72
2022/07/11 22:28:26;;;;;;;14.30;13.60;;;19.20;99.90;;;;;;4951150;29;20464;-71
2022/07/11 22:30:52;;;;;;;14.27;13.40;;;19.20;99.90;;;;;;4951415;28;20961;-71
2022/07/11 22:33:19;;;;;;;14.80;14.00;;;19.10;99.90;;;;;;4954146;29;20499;-71
2022/07/11 22:35:46;;;;;;;14.03;13.43;;;19.00;99.90;;;;;;4954697;28;20487;-71
2022/07/11 22:38:13;;;;;;;14.83;14.03;;;19.00;99.90;;;;;;4954860;29;21017;-70
2022/07/11 22:40:39;;;;;;;15.30;14.40;;;18.90;99.90;;;;;;4952353;29;20452;-70
2022/07/11 22:43:19;;;;;;;15.03;14.27;;;18.90;99.90;;;;;;4954708;29;20462;-70
2022/07/11 22:45:47;;;;;;;15.47;14.50;;;18.80;99.90;;;;;;4954320;29;20460;-70
2022/07/11 22:48:15;;;;;;;16.83;15.43;;;18.80;99.90;;;;;;4954563;28;20803;-70
2022/07/11 22:50:41;;;;;;;16.17;15.33;;;18.80;99.90;;;;;;4973655;28;20459;-71
2022/07/11 22:53:08;;;;;;;16.03;15.00;;;18.70;99.90;;;;;;4973435;28;20475;-71
2022/07/11 22:55:35;;;;;;;14.87;14.07;;;18.70;99.90;;;;;;4973359;28;21009;-71
2022/07/11 22:58:02;;;;;;;15.80;15.00;;;18.50;99.90;;;;;;4958448;28;20469;-71
2022/07/11 23:00:30;;;;;;;16.33;15.33;;;18.40;99.90;;;;;;4952992;28;20526;-71
2022/07/11 23:02:57;;;;;;;16.23;14.77;;;18.30;99.90;;;;;;4963210;28;21030;-70
2022/07/11 23:05:23;;;;;;;16.80;15.70;;;18.30;99.90;;;;;;4953916;29;20453;-71
2022/07/11 23:07:50;;;;;;;18.17;16.77;;;18.20;99.90;;;;;;4968717;28;20452;-72
2022/07/11 23:10:17;;;;;;;17.63;16.00;;;18.10;99.90;;;;;;4973799;28;20459;-71
2022/07/11 23:12:43;;;;;;;17.30;15.60;;;18.00;99.90;;;;;;4973088;28;20777;-71
2022/07/11 23:15:11;;;;;;;18.43;16.60;;;17.90;99.90;;;;;;4967886;28;20789;-72
2022/07/11 23:17:39;;;;;;;17.40;16.00;;;17.80;99.90;;;;;;4953652;29;20512;-72
2022/07/11 23:20:07;;;;;;;20.47;18.30;;;17.70;99.90;;;;;;4953909;29;20483;-72
2022/07/11 23:22:33;;;;;;;19.90;18.00;;;17.60;99.90;;;;;;4953654;29;20487;-72
2022/07/11 23:25:00;;;;;;;17.83;16.10;;;17.50;99.90;;;;;;4953899;29;20448;-71
2022/07/11 23:27:27;;;;;;;18.50;17.10;;;17.50;99.90;;;;;;4953346;29;20531;-71
2022/07/11 23:29:53;;;;;;;21.70;16.67;;;17.50;99.90;;;;;;4953625;29;20457;-71
2022/07/11 23:32:23;;;;;;;17.60;16.20;;;17.40;99.90;;;;;;4953491;29;20437;-71
2022/07/11 23:34:51;;;;;;;18.03;16.83;;;17.40;99.90;;;;;;4953270;29;20492;-71
2022/07/11 23:37:18;;;;;;;17.00;15.80;;;17.40;99.90;;;;;;4953502;29;20520;-71
2022/07/11 23:39:47;;;;;;;17.10;16.00;;;17.40;99.90;;;;;;4953568;29;20547;-71
2022/07/11 23:42:14;;;;;;;19.10;17.30;;;17.40;99.90;;;;;;4953224;28;20457;-71
2022/07/11 23:44:41;;;;;;;19.80;18.00;;;17.30;99.90;;;;;;4953513;29;20449;-71
2022/07/11 23:47:08;;;;;;;18.93;17.83;;;17.30;99.90;;;;;;4953527;29;20798;-71
2022/07/11 23:49:35;;;;;;;18.90;17.30;;;17.20;99.90;;;;;;4953628;29;20460;-71
2022/07/11 23:52:04;;;;;;;18.03;17.10;;;17.10;99.90;;;;;;4953889;29;20464;-71
2022/07/11 23:54:31;;;;;;;19.10;17.97;;;17.10;99.90;;;;;;4953503;29;20488;-71
2022/07/11 23:56:57;;;;;;;20.37;18.70;;;17.10;99.90;;;;;;4953872;29;20853;-71
2022/07/11 23:59:24;;;;;;;18.30;17.20;;;16.90;99.90;;;;;;4953378;29;20817;-70
